createdAt,value
2022-10-09T00:04:36.857Z,11.20
2022-10-09T00:09:40.168Z,10.50
2022-10-09T00:14:43.249Z,8.30
2022-10-09T00:19:46.449Z,8.30
2022-10-09T00:24:49.562Z,7.80
2022-10-09T00:29:52.592Z,11.70
2022-10-09T00:34:55.689Z,7.60
2022-10-09T00:39:58.855Z,8.80
2022-10-09T00:45:03.530Z,7.80
2022-10-09T00:50:23.148Z,7.30
2022-10-09T00:55:29.176Z,7.80
2022-10-09T01:00:32.449Z,7.20
2022-10-09T01:05:56.659Z,7.00
2022-10-09T01:11:04.380Z,7.70
2022-10-09T01:16:19.209Z,7.70
2022-10-09T01:22:03.902Z,7.10
2022-10-09T01:27:22.686Z,7.50
2022-10-09T01:32:32.231Z,6.80
2022-10-09T01:37:41.242Z,9.60
2022-10-09T01:42:47.630Z,7.10
2022-10-09T01:47:51.138Z,8.80
2022-10-09T01:53:03.158Z,8.00
2022-10-09T01:58:19.313Z,6.70
2022-10-09T02:03:26.088Z,5.60
2022-10-09T02:08:32.683Z,7.50
2022-10-09T02:13:36.749Z,6.60
2022-10-09T02:18:46.229Z,11.70
2022-10-09T02:23:51.437Z,9.70
2022-10-09T02:28:55.185Z,8.50
2022-10-09T02:34:01.121Z,7.60
2022-10-09T02:39:07.103Z,8.50
2022-10-09T02:44:10.942Z,8.30
2022-10-09T02:49:14.540Z,7.60
2022-10-09T02:54:18.207Z,9.30
2022-10-09T02:59:21.315Z,7.90
2022-10-09T03:04:24.432Z,8.10
2022-10-09T03:09:33.574Z,10.00
2022-10-09T03:14:37.191Z,7.80
2022-10-09T03:19:40.269Z,7.00
2022-10-09T03:24:43.489Z,10.20
2022-10-09T03:29:46.855Z,10.80
2022-10-09T03:34:50.034Z,10.70
2022-10-09T03:39:53.524Z,8.10
2022-10-09T03:44:57.824Z,6.10
2022-10-09T03:50:00.886Z,7.60
2022-10-09T03:55:04.727Z,9.20
2022-10-09T04:00:09.212Z,8.90
2022-10-09T04:05:12.536Z,8.60
2022-10-09T04:10:16.295Z,9.80
2022-10-09T04:15:20.691Z,12.00
2022-10-09T04:20:23.748Z,7.30
2022-10-09T04:25:26.996Z,9.40
2022-10-09T04:30:30.119Z,9.10
2022-10-09T04:35:34.347Z,10.30
2022-10-09T04:40:37.513Z,10.80
2022-10-09T04:45:41.794Z,8.80
2022-10-09T04:50:44.950Z,11.20
2022-10-09T04:55:48.497Z,9.60
2022-10-09T05:00:51.616Z,10.50
2022-10-09T05:05:54.712Z,9.50
2022-10-09T05:11:05.907Z,6.50
2022-10-09T05:16:14.064Z,12.30
2022-10-09T05:21:17.982Z,10.60
2022-10-09T05:26:23.343Z,9.90
2022-10-09T05:31:28.920Z,11.50
2022-10-09T05:36:33.098Z,9.00
2022-10-09T05:41:36.237Z,9.40
2022-10-09T05:46:39.707Z,9.00
2022-10-09T05:51:45.765Z,9.20
2022-10-09T05:56:49.617Z,8.50
2022-10-09T06:01:54.938Z,7.00
2022-10-09T06:06:58.270Z,7.00
2022-10-09T06:12:01.391Z,8.10
2022-10-09T06:17:04.611Z,8.00
2022-10-09T06:22:07.742Z,9.50
2022-10-09T06:27:14.143Z,8.60
2022-10-09T06:32:17.197Z,8.00
2022-10-09T06:37:20.332Z,6.30
2022-10-09T06:42:23.488Z,6.20
2022-10-09T06:47:26.628Z,6.30
2022-10-09T06:52:29.727Z,7.70
2022-10-09T06:57:34.059Z,6.50
2022-10-09T07:02:43.155Z,7.50
2022-10-09T07:07:47.467Z,6.90
2022-10-09T07:12:51.606Z,7.00
2022-10-09T07:17:55.242Z,6.20
2022-10-09T07:22:58.356Z,6.40
2022-10-09T07:28:01.486Z,6.30
2022-10-09T07:33:04.758Z,4.70
2022-10-09T07:38:08.427Z,6.70
2022-10-09T07:43:11.606Z,6.10
2022-10-09T07:48:14.848Z,5.00
2022-10-09T07:53:18.951Z,6.20
2022-10-09T07:58:22.137Z,4.20
2022-10-09T08:03:25.694Z,5.80
2022-10-09T08:08:29.544Z,2.80
2022-10-09T08:13:32.716Z,5.80
2022-10-09T08:18:36.959Z,6.80
2022-10-09T08:23:40.345Z,6.30
2022-10-09T08:28:44.701Z,5.70
2022-10-09T08:33:51.512Z,5.00
2022-10-09T08:38:55.563Z,5.60
2022-10-09T08:44:04.215Z,3.80
2022-10-09T08:49:20.205Z,5.00
2022-10-09T08:54:39.209Z,8.00
2022-10-09T08:59:43.464Z,4.00
2022-10-09T09:05:04.274Z,6.50
2022-10-09T09:10:37.409Z,5.90
2022-10-09T09:16:02.030Z,4.40
2022-10-09T09:21:17.888Z,4.40
2022-10-09T09:26:22.678Z,4.50
2022-10-09T09:31:30.612Z,6.80
2022-10-09T09:36:54.761Z,6.70
2022-10-09T09:42:12.526Z,3.70
2022-10-09T09:47:34.746Z,4.60
2022-10-09T09:52:57.571Z,3.90
2022-10-09T09:58:07.632Z,5.00
2022-10-09T10:03:14.563Z,4.10
2022-10-09T10:08:21.162Z,3.70
2022-10-09T10:13:37.779Z,2.60
2022-10-09T10:18:43.500Z,8.60
2022-10-09T10:24:06.065Z,4.80
2022-10-09T10:29:18.936Z,4.40
2022-10-09T10:34:31.123Z,3.40
2022-10-09T10:39:43.525Z,3.90
2022-10-09T10:45:00.911Z,5.20
2022-10-09T10:50:04.325Z,4.00
2022-10-09T10:55:21.353Z,5.30
2022-10-09T11:00:24.703Z,3.80
2022-10-09T11:05:38.648Z,8.60
2022-10-09T11:11:09.638Z,4.50
2022-10-09T11:16:48.242Z,5.00
2022-10-09T11:22:03.720Z,4.60
2022-10-09T11:27:18.970Z,3.90
2022-10-09T11:32:24.943Z,4.60
2022-10-09T11:37:39.481Z,3.90
2022-10-09T11:42:43.688Z,5.20
2022-10-09T11:48:03.074Z,4.10
2022-10-09T11:53:12.071Z,5.60
2022-10-09T11:58:26.370Z,4.20
2022-10-09T12:03:40.124Z,4.90
2022-10-09T12:09:00.844Z,3.30
2022-10-09T12:14:24.048Z,4.50
2022-10-09T12:19:38.685Z,3.60
2022-10-09T12:24:53.483Z,4.80
2022-10-09T12:30:18.633Z,4.40
2022-10-09T12:35:37.899Z,5.70
2022-10-09T12:40:47.594Z,4.90
2022-10-09T12:45:53.577Z,5.10
2022-10-09T12:50:57.345Z,6.00
2022-10-09T12:56:03.701Z,3.20
2022-10-09T13:01:13.435Z,4.20
2022-10-09T13:06:24.613Z,4.20
2022-10-09T13:11:30.804Z,3.50
2022-10-09T13:16:45.244Z,3.10
2022-10-09T13:22:00.837Z,2.60
2022-10-09T13:27:05.668Z,4.30
2022-10-09T13:32:14.001Z,3.30
2022-10-09T13:37:20.510Z,3.30
2022-10-09T13:42:27.619Z,5.60
2022-10-09T13:47:30.950Z,3.00
2022-10-09T13:52:34.375Z,3.80
2022-10-09T13:57:37.875Z,3.40
2022-10-09T14:02:41.044Z,4.00
2022-10-09T14:07:44.195Z,3.50
2022-10-09T14:12:47.901Z,5.80
2022-10-09T14:17:51.924Z,3.20
2022-10-09T14:22:56.041Z,6.70
2022-10-09T14:27:59.307Z,3.00
2022-10-09T14:33:02.627Z,5.30
2022-10-09T14:38:05.825Z,7.60
2022-10-09T14:43:09.036Z,3.70
2022-10-09T14:48:13.071Z,20.00
2022-10-09T14:53:16.899Z,40.80
2022-10-09T14:58:20.734Z,19.50
2022-10-09T15:03:25.667Z,10.80
2022-10-09T15:08:34.569Z,5.00
2022-10-09T15:13:39.794Z,3.20
2022-10-09T15:18:44.227Z,3.30
2022-10-09T15:23:48.885Z,4.80
2022-10-09T15:28:52.181Z,5.30
2022-10-09T15:33:58.247Z,5.80
2022-10-09T15:39:05.916Z,5.50
2022-10-09T15:44:21.447Z,4.80
2022-10-09T15:49:25.453Z,4.80
2022-10-09T15:54:28.861Z,4.50
2022-10-09T15:59:32.301Z,4.10
2022-10-09T16:04:35.466Z,6.10
2022-10-09T16:09:38.938Z,7.60
2022-10-09T16:14:43.033Z,12.70
2022-10-09T16:19:46.355Z,12.30
2022-10-09T16:24:50.269Z,9.00
2022-10-09T16:29:53.648Z,9.30
2022-10-09T16:34:57.045Z,9.90
2022-10-09T16:40:00.708Z,12.00
2022-10-09T16:45:05.180Z,12.10
2022-10-09T16:50:10.648Z,13.90
2022-10-09T16:55:14.172Z,20.50
2022-10-09T17:00:19.383Z,49.40
2022-10-09T17:05:27.354Z,33.60
2022-10-09T17:10:30.451Z,18.70
2022-10-09T17:15:34.403Z,15.40
2022-10-09T17:20:39.782Z,15.70
2022-10-09T17:25:45.614Z,15.30
2022-10-09T17:30:49.369Z,16.10
2022-10-09T17:35:52.535Z,16.30
2022-10-09T17:40:56.063Z,22.40
2022-10-09T17:46:01.056Z,15.30
2022-10-09T17:51:06.830Z,19.40
2022-10-09T17:56:11.232Z,23.70
2022-10-09T18:01:16.296Z,21.10
2022-10-09T18:06:25.529Z,18.40
2022-10-09T18:11:30.246Z,19.40
2022-10-09T18:16:37.022Z,20.70
2022-10-09T18:21:45.526Z,34.40
2022-10-09T18:26:48.820Z,34.30
2022-10-09T18:31:59.544Z,35.10
2022-10-09T18:37:02.797Z,65.80
2022-10-09T18:42:06.378Z,36.10
2022-10-09T18:47:14.776Z,26.10
2022-10-09T18:52:19.888Z,25.60
2022-10-09T18:57:25.746Z,26.90
2022-10-09T19:02:29.097Z,23.60
2022-10-09T19:07:32.422Z,21.30
2022-10-09T19:12:35.695Z,24.80
2022-10-09T19:17:39.141Z,21.10
2022-10-09T19:22:44.399Z,17.70
2022-10-09T19:27:48.066Z,21.50
2022-10-09T19:32:53.058Z,23.20
2022-10-09T19:37:56.537Z,25.50
2022-10-09T19:43:00.692Z,24.60
2022-10-09T19:48:04.272Z,22.10
2022-10-09T19:53:07.458Z,20.50
2022-10-09T19:58:11.974Z,25.70
2022-10-09T20:03:15.302Z,22.40
2022-10-09T20:08:18.782Z,29.80
2022-10-09T20:13:23.047Z,20.60
2022-10-09T20:18:26.226Z,22.40
2022-10-09T20:23:29.326Z,33.80
2022-10-09T20:28:34.107Z,28.80
2022-10-09T20:33:45.365Z,20.80
2022-10-09T20:38:49.178Z,23.10
2022-10-09T20:43:54.888Z,21.90
2022-10-09T20:48:59.135Z,24.60
2022-10-09T20:54:03.571Z,23.40
2022-10-09T20:59:06.694Z,24.80
2022-10-09T21:04:12.062Z,22.50
2022-10-09T21:09:15.188Z,26.70
2022-10-09T21:14:18.279Z,23.30
2022-10-09T21:19:21.487Z,22.40
2022-10-09T21:24:24.919Z,25.60
2022-10-09T21:29:28.116Z,24.00
2022-10-09T21:34:31.360Z,25.70
2022-10-09T21:39:34.523Z,24.50
2022-10-09T21:44:37.668Z,25.50
2022-10-09T21:49:42.029Z,21.80
2022-10-09T21:54:45.329Z,19.00
2022-10-09T21:59:48.491Z,16.00
2022-10-09T22:04:51.944Z,20.20
2022-10-09T22:09:55.343Z,22.50
2022-10-09T22:14:58.628Z,18.90
2022-10-09T22:20:01.857Z,21.90
2022-10-09T22:25:05.946Z,20.50
2022-10-09T22:30:10.121Z,21.80
2022-10-09T22:35:13.326Z,20.10
2022-10-09T22:40:16.582Z,19.90
2022-10-09T22:45:19.967Z,16.20
2022-10-09T22:50:24.695Z,24.80
2022-10-09T22:55:27.783Z,18.90
2022-10-09T23:00:30.906Z,19.70
2022-10-09T23:05:33.923Z,21.50
2022-10-09T23:10:38.973Z,21.30
2022-10-09T23:15:42.098Z,21.80
2022-10-09T23:20:45.176Z,18.50
2022-10-09T23:25:48.374Z,17.90
2022-10-09T23:30:51.446Z,18.90
2022-10-09T23:35:54.671Z,17.20
2022-10-09T23:41:06.957Z,16.30
2022-10-09T23:46:22.812Z,18.30
2022-10-09T23:51:26.686Z,14.80
2022-10-09T23:56:32.941Z,13.40
